Home > Products > Valid Products > TAF

000
FTUS41 KPHI 242300
TAFILG
TAF
KILG 242332Z 2500/2524 32006KT P6SM SCT250
     FM250300 VRB03KT P6SM BKN250
     FM251400 15008KT P6SM BKN250
     FM252100 15010KT P6SM -SHRA BKN050 OVC100
     FM252300 12010KT 4SM SHRA BR OVC020=



000
FTUS41 KPHI 242300
TAFMIV
TAF
KMIV 242332Z 2500/2524 31006KT P6SM SCT250
     FM250300 VRB03KT P6SM BKN250
     FM251400 13006KT P6SM BKN250
     FM252200 12010KT P6SM -SHRA BKN050 OVC100=



000
FTUS41 KPHI 242300
TAFACY
TAF
KACY 242332Z 2500/2524 31006KT P6SM SCT250
     FM250300 VRB03KT P6SM BKN250
     FM251400 15012KT P6SM BKN250
     FM252300 14012KT P6SM -SHRA BKN050 OVC100=



000
FTUS41 KPHI 242300
TAFPNE
TAF
KPNE 242332Z 2500/2524 34008KT P6SM SCT250
     FM250400 VRB03KT P6SM BKN250
     FM251400 15008KT P6SM BKN250
     FM252200 15010KT P6SM -SHRA BKN050 OVC100=



000
FTUS41 KPHI 242300
TAFABE
TAF
KABE 242332Z 2500/2524 33006KT P6SM SCT250
     FM250300 VRB03KT P6SM BKN250
     FM251400 14006KT P6SM BKN250
     FM252200 13008KT P6SM -SHRA BKN050 OVC100=



000
FTUS41 KPHI 242300
TAFTTN
TAF
KTTN 242332Z 2500/2524 34008KT P6SM SCT250
     FM250400 VRB03KT P6SM BKN250
     FM251400 15008KT P6SM BKN250
     FM252300 15010KT P6SM -SHRA BKN050 OVC100=



000
FTUS41 KPHI 242300
TAFRDG
TAF
KRDG 242332Z 2500/2524 33006KT P6SM SCT250
     FM250300 VRB03KT P6SM BKN250
     FM251400 17008KT P6SM BKN250
     FM252100 16008KT P6SM -SHRA BKN050 OVC100
     FM252300 14008KT 4SM SHRA BR OVC020=



000
FTUS41 KPHI 242300
TAFPHL
TAF
KPHL 242332Z 2500/2606 33008KT P6SM SCT250
     FM250500 VRB03KT P6SM BKN250
     FM251400 15008KT P6SM BKN250
     FM252200 15010KT P6SM -SHRA BKN050 OVC100
     FM260000 13008KT 4SM SHRA BR OVC020
     FM260300 VRB05KT 2SM SHRA BR OVC010=



000
FTUS41 KPHI 242200 AAA
TAFABE
TAF AMD
KABE 242202Z 2422/2518 33010KT P6SM SKC
     FM250000 35006KT P6SM SKC
     FM250600 VRB04KT P6SM SCT250
     FM251500 14007KT P6SM BKN200=



000
FTUS41 KPHI 242200 AAA
TAFRDG
TAF AMD
KRDG 242202Z 2422/2518 31010KT P6SM SKC
     FM250000 36005KT P6SM SKC
     FM250400 VRB04KT P6SM SCT250
     FM251500 15007KT P6SM BKN200=



000
FTUS41 KPHI 242200 AAA
TAFACY
TAF AMD
KACY 242201Z 2422/2518 31012G20KT P6SM SKC
     FM250000 32008KT P6SM SKC
     FM250600 VRB03KT P6SM FEW250
     FM251400 16009KT P6SM BKN250=



000
FTUS41 KPHI 242200 AAA
TAFMIV
TAF AMD
KMIV 242201Z 2422/2518 31012G20KT P6SM SKC
     FM250000 31008KT P6SM SKC
     FM250200 VRB03KT P6SM FEW250
     FM251500 16008KT P6SM BKN250=



000
FTUS41 KPHI 242200 AAA
TAFPNE
TAF AMD
KPNE 242201Z 2422/2518 33012G20KT P6SM SKC
     FM250000 34010KT P6SM SKC
     FM250600 VRB05KT P6SM SCT250
     FM251500 16008KT P6SM BKN200=



000
FTUS41 KPHI 242200 AAA
TAFTTN
TAF AMD
KTTN 242201Z 2422/2518 33012G20KT P6SM SKC
     FM250000 34010KT P6SM SKC
     FM250600 VRB04KT P6SM SCT250
     FM251500 16008KT P6SM BKN200=



000
FTUS41 KPHI 242200 AAB
TAFPHL
TAF AMD
KPHL 242200Z 2422/2524 30012G20KT P6SM SKC
     FM250000 33010KT P6SM SKC
     FM250600 VRB05KT P6SM SCT250
     FM251500 16008KT P6SM BKN200
     FM252100 18010KT P6SM OVC100 PROB30 2521/2524 6SM -RA BKN030=



000
FTUS41 KPHI 242200 AAA
TAFILG
TAF AMD
KILG 242200Z 2422/2518 31012G20KT P6SM SKC
     FM250000 34010KT P6SM SKC
     FM250600 VRB05KT P6SM SCT250
     FM251500 16008KT P6SM BKN200=



000
FTUS41 KPHI 242100 AAA
TAFPHL
TAF AMD
KPHL 242103Z 2421/2524 33012G22KT P6SM SKC
     FM250000 34010KT P6SM SKC
     FM250600 VRB05KT P6SM SCT250
     FM251500 16008KT P6SM BKN200
     FM252100 18010KT P6SM OVC100 PROB30 2521/2524 6SM -RA BKN030=



000
FTUS41 KPHI 241700
TAFILG
TAF
KILG 241728Z 2418/2518 31016G26KT P6SM SKC
     FM250000 34010KT P6SM SKC
     FM250600 VRB05KT P6SM SCT250
     FM251500 16008KT P6SM BKN200=



000
FTUS41 KPHI 241700
TAFPNE
TAF
KPNE 241728Z 2418/2518 31018G28KT P6SM SKC
     FM250000 34010KT P6SM SKC
     FM250600 VRB05KT P6SM SCT250
     FM251500 16008KT P6SM BKN200=



000
FTUS41 KPHI 241700
TAFACY
TAF
KACY 241728Z 2418/2518 32018G30KT P6SM SKC
     FM250000 33007KT P6SM SKC
     FM250600 VRB03KT P6SM FEW250
     FM251400 16009KT P6SM BKN250=



000
FTUS41 KPHI 241700
TAFPHL
TAF
KPHL 241728Z 2418/2524 33018G28KT P6SM SKC
     FM250000 34010KT P6SM SKC
     FM250600 VRB05KT P6SM SCT250
     FM251500 16008KT P6SM BKN200
     FM252100 18010KT P6SM OVC100 PROB30 2521/2524 6SM -RA BKN030=



000
FTUS41 KPHI 241700
TAFMIV
TAF
KMIV 241728Z 2418/2518 32015G25KT P6SM SKC
     FM242300 31007KT P6SM SKC
     FM250200 VRB03KT P6SM FEW250
     FM251500 16008KT P6SM BKN250=



000
FTUS41 KPHI 241700
TAFABE
TAF
KABE 241728Z 2418/2518 31014G26KT P6SM SKC
     FM250000 35007KT P6SM SKC
     FM250600 VRB04KT P6SM SCT250
     FM251500 14007KT P6SM BKN200=



000
FTUS41 KPHI 241700
TAFTTN
TAF
KTTN 241728Z 2418/2518 32015G28KT P6SM SKC
     FM250000 34009KT P6SM SKC
     FM250600 VRB04KT P6SM SCT250
     FM251500 16008KT P6SM BKN200=



000
FTUS41 KPHI 241700
TAFRDG
TAF
KRDG 241728Z 2418/2518 31013G25KT P6SM SKC
     FM242300 36005KT P6SM SKC
     FM250400 VRB04KT P6SM SCT250
     FM251500 15007KT P6SM BKN200=



000
FTUS41 KPHI 241500 AAA
TAFTTN
TAF AMD
KTTN 241534Z 2416/2512 32015G28KT P6SM SKC
     FM250000 35005KT P6SM SKC=



000
FTUS41 KPHI 241500 AAA
TAFPHL
TAF AMD
KPHL 241533Z 2416/2518 32018G28KT P6SM SKC
     FM250200 34008KT P6SM BKN250=



000
FTUS41 KPHI 241100
TAFABE
TAF
KABE 241121Z 2412/2512 31010KT P6SM SKC
     FM241300 31014G26KT P6SM SKC
     FM250000 35005KT P6SM SKC=



000
FTUS41 KPHI 241100
TAFRDG
TAF
KRDG 241121Z 2412/2512 30010KT P6SM SKC
     FM241300 31013G25KT P6SM SKC
     FM250000 36005KT P6SM SKC=



000
FTUS41 KPHI 241100
TAFPHL
TAF
KPHL 241121Z 2412/2518 29010KT P6SM SKC
     FM241300 32018G28KT P6SM SKC
     FM250200 34008KT P6SM BKN250=



000
FTUS41 KPHI 241100
TAFACY
TAF
KACY 241121Z 2412/2512 29011KT P6SM SKC
     FM241300 31018G28KT P6SM SKC
     FM250000 32005KT P6SM SKC=



000
FTUS41 KPHI 241100
TAFPNE
TAF
KPNE 241121Z 2412/2512 30011KT P6SM SKC
     FM241300 32018G28KT P6SM SKC
     FM250000 34008KT P6SM SKC=



000
FTUS41 KPHI 241100
TAFMIV
TAF
KMIV 241121Z 2412/2512 29010KT P6SM SKC
     FM241300 31015G25KT P6SM SKC
     FM250000 VRB03KT P6SM SKC=



000
FTUS41 KPHI 241100
TAFTTN
TAF
KTTN 241121Z 2412/2512 31011KT P6SM SKC
     FM241300 34015G28KT P6SM SKC
     FM250000 35005KT P6SM SKC=



000
FTUS41 KPHI 241100
TAFILG
TAF
KILG 241121Z 2412/2512 28010KT P6SM SKC
     FM241300 31017G27KT P6SM SKC
     FM250000 32005KT P6SM SKC=



000
FTUS41 KPHI 240900 AAA
TAFPHL
TAF AMD
KPHL 240900Z 2409/2512 29010KT P6SM SKC
     FM241300 32018G28KT P6SM SKC
     FM250200 34008KT P6SM SKC=



000
FTUS41 KPHI 240500
TAFACY
TAF
KACY 240531Z 2406/2506 31012KT P6SM SKC
     FM241300 31018G28KT P6SM SKC
     FM250000 32005KT P6SM SKC=



000
FTUS41 KPHI 240500
TAFABE
TAF
KABE 240531Z 2406/2506 30010KT P6SM SKC
     FM241300 31014G26KT P6SM SKC
     FM250000 35005KT P6SM SKC=



000
FTUS41 KPHI 240500
TAFRDG
TAF
KRDG 240531Z 2406/2506 30010KT P6SM SKC
     FM241300 31013G25KT P6SM SKC
     FM250000 36005KT P6SM SKC=



000
FTUS41 KPHI 240500
TAFILG
TAF
KILG 240531Z 2406/2506 32010KT P6SM SKC
     FM241300 31017G27KT P6SM SKC
     FM250000 32005KT P6SM SKC=



000
FTUS41 KPHI 240500
TAFPNE
TAF
KPNE 240531Z 2406/2506 30011KT P6SM SKC
     FM241300 32018G28KT P6SM SKC
     FM250000 34008KT P6SM SKC=



000
FTUS41 KPHI 240500
TAFMIV
TAF
KMIV 240531Z 2406/2506 33010KT P6SM SKC
     FM241300 31015G25KT P6SM SKC
     FM250000 VRB03KT P6SM SKC=



000
FTUS41 KPHI 240500
TAFTTN
TAF
KTTN 240531Z 2406/2506 32011KT P6SM SKC
     FM241300 34015G28KT P6SM SKC
     FM250000 35005KT P6SM SKC=



000
FTUS41 KPHI 240500
TAFPHL
TAF
KPHL 240531Z 2406/2512 31011KT P6SM SKC
     FM241300 32018G28KT P6SM SKC
     FM250200 34008KT P6SM SKC=



000
FTUS41 KPHI 232300
TAFMIV
TAF
KMIV 232334Z 2400/2424 31015G25KT P6SM SCT050
     FM240400 30013KT P6SM SCT250
     FM241300 31015G25KT P6SM SKC=



000
FTUS41 KPHI 232300
TAFILG
TAF
KILG 232334Z 2400/2424 30018G28KT P6SM SCT050
     FM240600 30015KT P6SM SCT250
     FM241300 31018G28KT P6SM SKC=



000
FTUS41 KPHI 232300
TAFTTN
TAF
KTTN 232334Z 2400/2424 33015G25KT P6SM BKN045
     FM240500 33014KT P6SM SCT250
     FM241300 34015G28KT P6SM SKC=



000
FTUS41 KPHI 232300
TAFPHL
TAF
KPHL 232334Z 2400/2506 31018G25KT P6SM BKN045
     FM240500 30015KT P6SM SCT250
     FM241300 32018G28KT P6SM SKC
     FM250200 33012KT P6SM SKC=



000
FTUS41 KPHI 232300
TAFACY
TAF
KACY 232334Z 2400/2424 31020G28KT P6SM SCT050
     FM240400 29014KT P6SM SCT250
     FM241300 31018G28KT P6SM SKC=



000
FTUS41 KPHI 232300
TAFABE
TAF
KABE 232334Z 2400/2424 32018G25KT P6SM BKN045
     FM240500 30014KT P6SM SCT250
     FM241300 31014G26KT P6SM SKC=



000
FTUS41 KPHI 232300
TAFPNE
TAF
KPNE 232334Z 2400/2424 31016G25KT P6SM BKN050
     FM240500 31014KT P6SM SCT250
     FM241300 32018G28KT P6SM SKC=



000
FTUS41 KPHI 232300
TAFRDG
TAF
KRDG 232334Z 2400/2424 31018G24KT P6SM BKN050
     FM240500 30012KT P6SM SCT250
     FM241300 31013G25KT P6SM SKC=



000
FTUS41 KPHI 232100 AAA
TAFPHL
TAF AMD
KPHL 232103Z 2321/2424 31021G36KT P6SM BKN050
      TEMPO 2321/2324 SCT050
     FM240000 31015G25KT P6SM SKC
     FM240500 30015KT P6SM SKC
     FM241300 32018G28KT P6SM SKC
     FM242300 31015KT P6SM SKC=



000
FTUS41 KPHI 231700
TAFABE
TAF
KABE 231730Z 2318/2418 31018G30KT P6SM BKN040
      TEMPO 2320/2324 SCT040
     FM240000 31015G25KT P6SM SKC
     FM240500 29014KT P6SM SKC
     FM241300 31014G26KT P6SM SKC=



000
FTUS41 KPHI 231700
TAFACY
TAF
KACY 231730Z 2318/2418 30020G32KT P6SM BKN050
      TEMPO 2320/2324 SCT050
     FM240000 31015G25KT P6SM SKC
     FM240400 29014KT P6SM SKC
     FM241300 32018G28KT P6SM SKC=



000
FTUS41 KPHI 231700
TAFPNE
TAF
KPNE 231730Z 2318/2418 32018G32KT P6SM BKN045
      TEMPO 2320/2324 SCT050
     FM240000 32015G25KT P6SM SKC
     FM240500 31014KT P6SM SKC
     FM241300 32018G28KT P6SM SKC=



000
FTUS41 KPHI 231700
TAFMIV
TAF
KMIV 231730Z 2318/2418 31020G31KT P6SM BKN045
      TEMPO 2320/2324 SCT045
     FM240000 30015G25KT P6SM SKC
     FM240400 29013KT P6SM SKC
     FM241300 30015G25KT P6SM SKC=



000
FTUS41 KPHI 231700
TAFILG
TAF
KILG 231730Z 2318/2418 31017G30KT P6SM BKN045
      TEMPO 2320/2324 SCT045
     FM240000 31015G25KT P6SM SKC
     FM240600 30015KT P6SM SKC
     FM241300 31018G28KT P6SM SKC=



000
FTUS41 KPHI 231700
TAFTTN
TAF
KTTN 231730Z 2318/2418 32018G30KT P6SM BKN045
      TEMPO 2320/2324 SCT050
     FM240000 33015G25KT P6SM SKC
     FM240500 33014KT P6SM SKC
     FM241300 34015G27KT P6SM SKC=



000
FTUS41 KPHI 231700
TAFPHL
TAF
KPHL 231730Z 2318/2424 31021G32KT P6SM BKN045
      TEMPO 2320/2324 SCT050
     FM240000 31015G25KT P6SM SKC
     FM240500 30015KT P6SM SKC
     FM241300 32018G28KT P6SM SKC
     FM242300 31015KT P6SM SKC=



000
FTUS41 KPHI 231700
TAFRDG
TAF
KRDG 231730Z 2318/2418 32019G30KT P6SM BKN045
      TEMPO 2320/2324 SCT045
     FM240000 31018G25KT P6SM SKC
     FM240500 30012KT P6SM SKC
     FM241300 31013G25KT P6SM SKC=



000
FTUS41 KPHI 231400 AAA
TAFABE
TAF AMD
KABE 231437Z 2315/2412 31020G30KT P6SM BKN035
      TEMPO 2320/2324 SCT040
     FM240000 31015G25KT P6SM SCT250
     FM240700 29015KT P6SM SKC=



000
FTUS41 KPHI 231400 AAA
TAFMIV
TAF AMD
KMIV 231437Z 2315/2412 31020G31KT P6SM SCT050
      TEMPO 2315/2318 BKN050
     FM240000 31015G25KT P6SM SKC
     FM240600 29015KT P6SM SKC=



000
FTUS41 KPHI 231400 AAA
TAFILG
TAF AMD
KILG 231437Z 2315/2412 31021G32KT P6SM SCT050
      TEMPO 2315/2319 BKN050
     FM240000 31015G25KT P6SM SKC
     FM240600 31015KT P6SM SKC=



000
FTUS41 KPHI 231400 AAA
TAFRDG
TAF AMD
KRDG 231437Z 2315/2412 31020G30KT P6SM BKN035
      TEMPO 2320/2324 SCT040
     FM240000 31018G25KT P6SM SKC
     FM240500 30012KT P6SM SKC=



000
FTUS41 KPHI 231400 AAA
TAFPNE
TAF AMD
KPNE 231437Z 2315/2412 30020G32KT P6SM BKN040
      TEMPO 2320/2324 SCT050
     FM240000 32015G25KT P6SM SKC
     FM240600 29017KT P6SM SKC=



000
FTUS41 KPHI 231400 AAA
TAFACY
TAF AMD
KACY 231437Z 2315/2412 31020G32KT P6SM SCT050
      TEMPO 2315/2318 BKN050
     FM240000 31015G25KT P6SM SKC
     FM240600 29015KT P6SM SKC=



000
FTUS41 KPHI 231400 AAA
TAFTTN
TAF AMD
KTTN 231437Z 2315/2412 32018G32KT P6SM BKN040
      TEMPO 2320/2324 SCT050
     FM240000 34015G25KT P6SM SKC
     FM240700 32015KT P6SM SKC=



000
FTUS41 KPHI 231400 AAA
TAFPHL
TAF AMD
KPHL 231437Z 2315/2418 31021G32KT P6SM BKN040
      TEMPO 2320/2324 SCT050
     FM240000 31015G25KT P6SM SKC
     FM240600 30015KT P6SM SKC
     FM241400 31015G25KT P6SM SKC=



000
FTUS41 KPHI 231100
TAFPHL
TAF
KPHL 231139Z 2312/2418 30018G29KT P6SM FEW050 SCT200
     FM231500 31021G32KT P6SM SCT060
     FM240000 31015G25KT P6SM SKC
     FM240600 30015KT P6SM SKC
     FM241400 31015G25KT P6SM SKC=



000
FTUS41 KPHI 231100
TAFTTN
TAF
KTTN 231139Z 2312/2412 32018G28KT P6SM SCT040
     FM231500 32021G31KT P6SM SCT060
     FM240000 34015G25KT P6SM SKC
     FM240700 32015KT P6SM SKC=



000
FTUS41 KPHI 231100
TAFMIV
TAF
KMIV 231139Z 2312/2412 30018G29KT P6SM SCT200
     FM231500 31020G31KT P6SM SCT060
     FM240000 31015G25KT P6SM SKC
     FM240600 29015KT P6SM SKC=



000
FTUS41 KPHI 231100
TAFACY
TAF
KACY 231139Z 2312/2412 30018G29KT P6SM SCT200
     FM231500 31020G32KT P6SM SCT060
     FM240000 31015G25KT P6SM SKC
     FM240600 29015KT P6SM SKC=



000
FTUS41 KPHI 231100
TAFILG
TAF
KILG 231139Z 2312/2412 30018G29KT P6SM FEW050 SCT200
     FM231500 31021G32KT P6SM SCT060
     FM240000 31015G25KT P6SM SKC
     FM240600 31015KT P6SM SKC=



000
FTUS41 KPHI 231100
TAFABE
TAF
KABE 231139Z 2312/2412 31020G30KT P6SM BKN040
     FM240000 31015G25KT P6SM SCT250
     FM240700 29015KT P6SM SKC=



000
FTUS41 KPHI 231100
TAFRDG
TAF
KRDG 231139Z 2312/2412 31020G30KT P6SM SCT040
      TEMPO 2312/2316 BKN040
     FM240000 31018G25KT P6SM SKC
     FM240500 30012KT P6SM SKC=



000
FTUS41 KPHI 231100
TAFPNE
TAF
KPNE 231139Z 2312/2412 30020G30KT P6SM FEW050 SCT200
     FM231500 31021G32KT P6SM SCT060
     FM240000 32015G25KT P6SM SKC
     FM240600 29017KT P6SM SKC=



000
FTUS41 KPHI 230900 AAA
TAFPHL
TAF AMD
KPHL 230900Z 2309/2412 29011G22KT P6SM SCT250
     FM231200 30018G29KT P6SM SCT200
     FM231500 31021G32KT P6SM SCT040
     FM240000 31015G25KT P6SM SKC
     FM240500 31015KT P6SM SKC=



000
FTUS41 KPHI 230800 AAA
TAFACY
TAF AMD
KACY 230858Z 2309/2406 29015G25KT P6SM SCT080
     FM231200 30018G29KT P6SM SCT200
     FM231500 31020G32KT P6SM SCT060
     FM240000 31015G25KT P6SM SKC
     FM240500 31015KT P6SM SKC=



000
FTUS41 KPHI 230500 CCA
TAFILG
TAF COR
KILG 230556Z 2306/2406 30012G22KT P6SM SCT080
     FM231200 30018G29KT P6SM SCT200
     FM231500 31021G32KT P6SM SCT060
     FM240000 31015G25KT P6SM SKC
     FM240500 31015KT P6SM SKC=



000
FTUS41 KPHI 230500
TAFMIV
TAF
KMIV 230533Z 2306/2406 30011G15KT P6SM SCT080
     FM231200 30018G29KT P6SM SCT200
     FM231500 31020G31KT P6SM SCT060
     FM240000 31015G25KT P6SM SKC
     FM240500 31015KT P6SM SKC=



000
FTUS41 KPHI 230500
TAFPHL
TAF
KPHL 230533Z 2306/2412 29011G20KT P6SM SCT030 BKN070
     FM231200 30018G29KT P6SM SCT200
     FM231500 31021G32KT P6SM SCT040
     FM240000 31015G25KT P6SM SKC
     FM240500 31015KT P6SM SKC=



000
FTUS41 KPHI 230500
TAFILG
TAF
KILG 230533Z 2306/2406 32012G22KT P6SM SCT080
     FM231200 30018G29KT P6SM SCT200
     FM231500 31021G32KT P6SM SCT060
     FM240000 31015G25KT P6SM SKC
     FM240500 31015KT P6SM SKC=



000
FTUS41 KPHI 230500
TAFPNE
TAF
KPNE 230533Z 2306/2406 29010G15KT P6SM SCT080
     FM231200 30020G30KT P6SM SCT200
     FM231500 31021G32KT P6SM SCT060
     FM240000 32015G25KT P6SM SKC
     FM240500 32015KT P6SM SKC=



000
FTUS41 KPHI 230500
TAFTTN
TAF
KTTN 230533Z 2306/2406 28010G15KT P6SM SCT080
     FM231200 32018G28KT P6SM SCT200
     FM231500 32021G31KT P6SM SCT060
     FM240000 34015G25KT P6SM SKC
     FM240500 34015KT P6SM SKC=



000
FTUS41 KPHI 230500
TAFABE
TAF
KABE 230533Z 2306/2406 27010G15KT P6SM SCT080
     FM231200 32020G30KT P6SM SCT040
     FM240000 31015G25KT P6SM SCT250
     FM240500 31015KT P6SM SKC=



000
FTUS41 KPHI 230500
TAFRDG
TAF
KRDG 230533Z 2306/2406 29011G20KT P6SM SCT080
     FM231200 31020G30KT P6SM SCT040
     FM240000 31018G25KT P6SM SKC
     FM240500 30012KT P6SM SKC=



000
FTUS41 KPHI 230500
TAFACY
TAF
KACY 230533Z 2306/2406 25011KT P6SM SCT080
     FM231200 30018G29KT P6SM SCT200
     FM231500 31020G32KT P6SM SCT060
     FM240000 31015G25KT P6SM SKC
     FM240500 31015KT P6SM SKC=



000
FTUS41 KPHI 230100 AAA
TAFILG
TAF AMD
KILG 230147Z 2302/2324 30011KT P6SM SCT080
     FM231200 30018G29KT P6SM SCT200
     FM231500 31021G32KT P6SM SCT060=



000
FTUS41 KPHI 230100 AAA
TAFMIV
TAF AMD
KMIV 230103Z 2301/2324 29010KT P6SM SCT080
     FM231200 30018G29KT P6SM SCT200
     FM231500 31020G31KT P6SM SCT060=



000
FTUS41 KPHI 230100 AAA
TAFACY
TAF AMD
KACY 230102Z 2301/2324 29011G20KT P6SM BKN080
     FM230300 28011KT P6SM SCT080
     FM231200 30018G29KT P6SM SCT200
     FM231500 31020G32KT P6SM SCT060=



000
FTUS41 KPHI 230000 AAA
TAFPHL
TAF AMD
KPHL 230050Z 2301/2406 29011KT P6SM SCT030 BKN070
     FM231200 30018G29KT P6SM SCT200
     FM231500 31021G32KT P6SM SCT040
     FM240200 31011KT P6SM FEW040=



000
FTUS41 KPHI 222300
TAFRDG
TAF
KRDG 222335Z 2300/2324 29011G20KT P6SM BKN100
     FM230200 31011KT P6SM SCT080
     FM231200 31020G30KT P6SM SCT040=



000
FTUS41 KPHI 222300
TAFABE
TAF
KABE 222335Z 2300/2324 29011KT P6SM BKN100
     FM230200 29009KT P6SM SCT080
     FM231200 32020G30KT P6SM SCT040=



000
FTUS41 KPHI 222300
TAFTTN
TAF
KTTN 222335Z 2300/2324 28011KT P6SM SCT080
      TEMPO 2300/2301 VRB30G40KT 4SM -TSRA BKN030CB
     FM231200 32018G28KT P6SM SCT200
     FM231500 32021G31KT P6SM SCT060=



000
FTUS41 KPHI 222300
TAFACY
TAF
KACY 222335Z 2300/2324 26009KT P6SM BKN200
     FM230200 29011KT P6SM SCT080
      TEMPO 2302/2303 5SM -SHRA BKN040
     FM231200 30018G29KT P6SM SCT200
     FM231500 31020G32KT P6SM SCT060=



000
FTUS41 KPHI 222300
TAFPNE
TAF
KPNE 222335Z 2300/2324 29011KT P6SM SCT080
      TEMPO 2300/2301 VRB30G40KT 4SM -TSRA BKN040CB
     FM231200 30020G30KT P6SM SCT200
     FM231500 31021G32KT P6SM SCT060=



000
FTUS41 KPHI 222300
TAFMIV
TAF
KMIV 222335Z 2300/2324 23009KT P6SM BKN150
     FM230100 28012KT P6SM SCT080
      TEMPO 2301/2302 VRB20G30KT 5SM -TSRA BKN040CB
     FM231200 30018G29KT P6SM SCT200
     FM231500 31020G31KT P6SM SCT060=



000
FTUS41 KPHI 222300
TAFPHL
TAF
KPHL 222335Z 2300/2406 28011KT P6SM SCT080
      TEMPO 2300/2301 VRB30G50KT 4SM -TSRA BKN040CB
     FM231200 30018G29KT P6SM SCT200
     FM231500 31021G32KT P6SM SCT060=



000
FTUS41 KPHI 222300
TAFILG
TAF
KILG 222335Z 2300/2324 30012G21KT P6SM SCT080
      TEMPO 2300/2301 VRB35G50KT 5SM -TSRA BKN040CB
     FM231200 30018G29KT P6SM SCT200
     FM231500 31021G32KT P6SM SCT060=



000
FTUS41 KPHI 222100 AAA
TAFILG
TAF AMD
KILG 222149Z 2222/2318 24010KT P6SM OVC090
     FM230000 30012G21KT P6SM SCT080
      TEMPO 2300/2301 VRB20G30KT 5SM -TSRA BKN040CB
     FM231200 30018G29KT P6SM SCT200
     FM231500 31021G32KT P6SM SCT060=



000
FTUS41 KPHI 222100 AAB
TAFPNE
TAF AMD
KPNE 222148Z 2222/2318 25009KT P6SM BKN150
     FM230000 29011G20KT P6SM SCT080
      TEMPO 2300/2301 VRB20G30KT 4SM -TSRA BKN040CB
     FM231200 30018G28KT P6SM SCT200
     FM231500 31021G32KT P6SM SCT060=



000
FTUS41 KPHI 222100 AAB
TAFTTN
TAF AMD
KTTN 222146Z 2222/2318 25011KT P6SM BKN080
     FM230000 28011G20KT P6SM SCT080
      TEMPO 2300/2301 4SM -TSRA BKN030CB
     FM231200 32018G28KT P6SM SCT200
     FM231500 32021G31KT P6SM SCT060=



000
FTUS41 KPHI 222100 AAC
TAFPHL
TAF AMD
KPHL 222141Z 2222/2324 23009KT P6SM BKN060
     FM230000 28012G21KT P6SM SCT080
      TEMPO 2300/2301 4SM -TSRA BKN040CB
     FM231200 30018G29KT P6SM SCT200
     FM231500 31021G32KT P6SM SCT060=



000
FTUS41 KPHI 222100 AAA
TAFABE
TAF AMD
KABE 222126Z 2221/2318 24009KT P6SM OVC080
     FM222300 30011G20KT P6SM BKN100
      TEMPO 2223/2224 VRB20G30KT 4SM -TSRA BKN040CB
     FM231100 29016G26KT P6SM SCT200
     FM231500 32018G29KT P6SM SCT060=



000
FTUS41 KPHI 222100 AAA
TAFRDG
TAF AMD
KRDG 222125Z 2221/2318 23008KT P6SM BKN090
      TEMPO 2222/2224 30020G30KT 4SM -TSRA BKN040CB
     FM230000 30011G20KT P6SM BKN100
     FM231100 29016G26KT P6SM SCT200
     FM231500 32018G29KT P6SM SCT060=



000
FTUS41 KPHI 222000 AAB
TAFPHL
TAF AMD
KPHL 222054Z 2221/2324 23009KT P6SM BKN100
     FM230100 28012G21KT P6SM SCT080
      TEMPO 2301/2302 4SM SHRA BKN040
     FM231200 30018G29KT P6SM SCT200
     FM231500 31021G32KT P6SM SCT060=



000
FTUS41 KPHI 222000 AAA
TAFPNE
TAF AMD
KPNE 222023Z 2220/2318 23009KT P6SM BKN150
      TEMPO 2220/2222 29010G20KT 6SM SHRA BKN050
     FM230000 27011KT 6SM -SHRA SCT040 BKN080
     FM230200 30012G21KT P6SM SCT080
     FM231200 30018G28KT P6SM SCT200
     FM231500 31021G32KT P6SM SCT060=



000
FTUS41 KPHI 222000 AAA
TAFTTN
TAF AMD
KTTN 222012Z 2220/2318 22011KT P6SM BKN150
      TEMPO 2220/2222 30010G20KT 6SM SHRA BKN050
     FM230000 28011KT 6SM -SHRA SCT040 BKN080
     FM230200 31012G21KT P6SM SCT080
     FM231200 32018G28KT P6SM SCT200
     FM231500 32021G31KT P6SM SCT060=



000
FTUS41 KPHI 222000 AAA
TAFPHL
TAF AMD
KPHL 222011Z 2220/2324 23011KT P6SM BKN150
      TEMPO 2220/2222 29010G20KT 6SM SHRA BKN050
     FM230000 27012KT 6SM -SHRA SCT040 BKN080
     FM230200 30012G21KT P6SM SCT080
     FM231200 30018G29KT P6SM SCT200
     FM231500 31021G32KT P6SM SCT060=



000
FTUS41 KPHI 221700 RRA
TAFPNE
TAF
KPNE 221741Z 2218/2318 23009KT P6SM BKN150
     FM222000 25011KT P6SM -SHRA SCT050 BKN080
     FM230000 27011KT 6SM -SHRA SCT040 BKN080
     FM230200 30012G21KT P6SM SCT080
     FM231200 30018G28KT P6SM SCT200
     FM231500 31021G32KT P6SM SCT060=



000
FTUS41 KPHI 221700 RRA
TAFRDG
TAF
KRDG 221741Z 2218/2318 23008KT P6SM -SHRA SCT050 BKN080
     FM222100 27010KT 6SM -SHRA SCT040 BKN070
     FM230000 30011G20KT P6SM BKN100
     FM231100 29016G26KT P6SM SCT200
     FM231500 32018G29KT P6SM SCT060=



000
FTUS41 KPHI 221700 RRA
TAFTTN
TAF
KTTN 221741Z 2218/2318 22011KT P6SM BKN150
     FM222000 25011KT P6SM -SHRA SCT050 BKN080
     FM230000 28011KT 6SM -SHRA SCT040 BKN080
     FM230200 31012G21KT P6SM SCT080
     FM231200 32018G28KT P6SM SCT200
     FM231500 32021G31KT P6SM SCT060=



000
FTUS41 KPHI 221700 RRA
TAFPHL
TAF
KPHL 221741Z 2218/2324 23011KT P6SM BKN150
     FM222000 25012KT P6SM -SHRA SCT050 BKN080
     FM230000 27012KT 6SM -SHRA SCT040 BKN080
     FM230200 30012G21KT P6SM SCT080
     FM231200 30018G29KT P6SM SCT200
     FM231500 31021G32KT P6SM SCT060=



000
FTUS41 KPHI 221700 RRA
TAFILG
TAF
KILG 221741Z 2218/2318 20009KT P6SM BKN150
     FM222000 24010KT P6SM -SHRA SCT050 BKN080
     FM230000 27012KT 6SM -SHRA SCT040 BKN080
     FM230200 30012G21KT P6SM SCT080
     FM231200 30018G29KT P6SM SCT200
     FM231500 31021G32KT P6SM SCT060=



000
FTUS41 KPHI 221700 RRA
TAFABE
TAF
KABE 221741Z 2218/2318 24009KT P6SM -SHRA SCT050 BKN080
     FM222100 28010KT 6SM -SHRA SCT040 BKN070
     FM230000 30011G20KT P6SM BKN100
     FM231100 29016G26KT P6SM SCT200
     FM231500 32018G29KT P6SM SCT060=



000
FTUS41 KPHI 221700 RRA
TAFACY
TAF
KACY 221741Z 2218/2318 18009KT P6SM BKN200
     FM222200 25012KT P6SM -SHRA SCT050 BKN080
     FM230100 27012KT 6SM -SHRA SCT040 BKN080
     FM230300 30012G21KT P6SM SCT080
     FM231200 30018G29KT P6SM SCT200
     FM231500 31020G32KT P6SM SCT060=



000
FTUS41 KPHI 221700 RRA
TAFMIV
TAF
KMIV 221741Z 2218/2318 23009KT P6SM BKN150
     FM222200 25012KT P6SM -SHRA SCT050 BKN080
     FM230100 27012KT 6SM -SHRA SCT040 BKN080
     FM230300 30012G21KT P6SM SCT080
     FM231200 30018G29KT P6SM SCT200
     FM231500 31020G31KT P6SM SCT060=



000
FTUS41 KPHI 221500 AAA
TAFTTN
TAF AMD
KTTN 221509Z 2215/2312 22011KT P6SM BKN200
     FM221900 25010KT 6SM -SHRA SCT050 BKN080
     FM222300 29011KT P6SM VCSH SCT060 BKN100
     FM230100 33012G20KT P6SM BKN100
     FM231000 32015G25KT P6SM SCT250=



000
FTUS41 KPHI 221500 AAA
TAFPHL
TAF AMD
KPHL 221503Z 2215/2318 23011KT P6SM BKN150
     FM222000 25012KT 6SM -SHRA SCT050 BKN080
     FM230000 27011KT P6SM VCSH BKN100
     FM230200 31012G20KT P6SM SCT080
     FM231200 30020G30KT P6SM SCT250=



000
FTUS41 KPHI 221100
TAFPHL
TAF
KPHL 221131Z 2212/2318 20005KT P6SM BKN200
     FM221500 23011KT P6SM BKN120
     FM222000 25012KT 6SM -SHRA SCT050 BKN080
     FM222300 27010KT P6SM VCSH BKN100
     FM230200 31012G20KT P6SM SCT080
     FM231200 30020G30KT P6SM SCT250=



000
FTUS41 KPHI 221100
TAFMIV
TAF
KMIV 221131Z 2212/2312 21004KT P6SM BKN250
     FM221500 23006KT P6SM BKN120
     FM222200 25009KT 6SM -SHRA SCT050 BKN080
     FM230000 27010KT P6SM VCSH BKN080
     FM230200 30012G20KT P6SM BKN100
     FM231100 29016G26KT P6SM SCT250=



000
FTUS41 KPHI 221100
TAFRDG
TAF
KRDG 221131Z 2212/2312 18004KT P6SM BKN200
     FM221700 24009KT 6SM -SHRA SCT040 BKN060
     FM222200 28010KT P6SM VCSH SCT060 BKN120
     FM230200 31012G20KT P6SM BKN120
     FM231000 30016G26KT P6SM SCT250=



000
FTUS41 KPHI 221100
TAFPNE
TAF
KPNE 221131Z 2212/2312 20005KT P6SM BKN250
     FM221500 23007KT P6SM BKN120
     FM221900 25009KT 6SM -SHRA SCT050 BKN080
     FM222300 27010KT P6SM VCSH SCT060 BKN100
     FM230200 32012G20KT P6SM BKN100
     FM231100 30018G28KT P6SM SCT250=



000
FTUS41 KPHI 221100
TAFTTN
TAF
KTTN 221131Z 2212/2312 22004KT P6SM BKN250
     FM221900 25009KT 6SM -SHRA SCT050 BKN080
     FM222300 29010KT P6SM VCSH SCT060 BKN100
     FM230100 33012G20KT P6SM BKN100
     FM231000 32015G25KT P6SM SCT250=



000
FTUS41 KPHI 221100
TAFACY
TAF
KACY 221131Z 2212/2312 18005KT P6SM BKN250
     FM221500 22010KT P6SM BKN120
     FM222100 23010KT 6SM -SHRA SCT050 BKN080
     FM230100 27010KT P6SM VCSH BKN080
     FM230300 29012G20KT P6SM BKN100
     FM231100 30018G28KT P6SM SCT200=



000
FTUS41 KPHI 221100
TAFILG
TAF
KILG 221131Z 2212/2312 20005KT P6SM BKN250
     FM221500 22008KT P6SM BKN120
     FM222100 25012KT 6SM -SHRA SCT050 BKN080
     FM222300 26010KT P6SM VCSH BKN100
     FM230200 31012G20KT P6SM SCT080
     FM231100 30018G28KT P6SM SCT250=



000
FTUS41 KPHI 221100
TAFABE
TAF
KABE 221131Z 2212/2312 20004KT P6SM BKN200
     FM221700 24009KT 6SM -SHRA SCT040 BKN060
     FM222100 28010KT P6SM VCSH SCT060 BKN120
     FM230200 30012G20KT P6SM BKN120
     FM231100 29017G27KT P6SM SCT250=



000
FTUS41 KPHI 220500
TAFILG
TAF
KILG 220533Z 2206/2306 17005KT P6SM BKN200
     FM221300 20008KT P6SM BKN150
     FM222100 25012KT 6SM -SHRA SCT050 BKN080
     FM222300 26010KT P6SM BKN100
     FM230200 31012G20KT P6SM SCT080=



000
FTUS41 KPHI 220500
TAFACY
TAF
KACY 220533Z 2206/2306 18006KT P6SM BKN200
     FM221400 21010KT P6SM BKN150
     FM222100 23010KT 6SM -SHRA SCT050 BKN080
     FM230100 27010KT P6SM BKN080
     FM230300 31012G20KT P6SM BKN100=



000
FTUS41 KPHI 220500
TAFPNE
TAF
KPNE 220533Z 2206/2306 20005KT P6SM BKN200
     FM221300 23007KT P6SM BKN150
     FM221900 25009KT 6SM -SHRA SCT050 BKN080
     FM222300 27010KT P6SM SCT060 BKN100
     FM230200 32012G20KT P6SM BKN100=



000
FTUS41 KPHI 220500
TAFPHL
TAF
KPHL 220533Z 2206/2312 20007KT P6SM BKN200
     FM221400 23011KT P6SM BKN150
     FM222000 25012KT 6SM -SHRA SCT050 BKN080
     FM222300 27010KT P6SM BKN100
     FM230200 31012G20KT P6SM SCT080=



000
FTUS41 KPHI 220500
TAFMIV
TAF
KMIV 220533Z 2206/2306 VRB02KT P6SM BKN200
      TEMPO 2206/2209 5SM BR
     FM221200 22006KT P6SM BKN150
     FM222200 25009KT 6SM -SHRA SCT050 BKN080
     FM230000 27010KT P6SM BKN080
     FM230200 30012G20KT P6SM BKN100=



000
FTUS41 KPHI 220500
TAFTTN
TAF
KTTN 220533Z 2206/2306 18006KT P6SM BKN200
     FM221200 23005KT P6SM OVC150
     FM221900 25009KT 6SM -SHRA SCT050 BKN080
     FM222300 29010KT P6SM SCT060 BKN100
     FM230100 33012G20KT P6SM BKN100=



000
FTUS41 KPHI 220500
TAFABE
TAF
KABE 220533Z 2206/2306 22004KT P6SM BKN200
     FM221700 24009KT 6SM -SHRA SCT040 BKN060
     FM222100 28020KT P6SM SCT060 BKN120
     FM230200 30012G20KT P6SM BKN120=



000
FTUS41 KPHI 220500
TAFRDG
TAF
KRDG 220533Z 2206/2306 22004KT P6SM BKN200
     FM221700 24009KT 6SM -SHRA SCT040 BKN060
     FM222200 28010KT P6SM SCT060 BKN120
     FM230200 31012G20KT P6SM BKN120=



    US Dept of Commerce
    National Oceanic and Atmospheric Administration
    National Weather Service
    1325 East West Highway
    Silver Spring, MD 20910
    Page Author: NWS Internet Services Team
Disclaimer
Information Quality
Credits
Glossary
Privacy Policy
Freedom of Information Act (FOIA)
About Us
Career Opportunities